sensor_id;sensor_type;location;lat;lon;timestamp;pressure;altitude;pressure_sealevel;temperature;humidity
29461;BME280;16428;47.836;35.106;2023-01-28T00:01:17;101345.88;;;-0.59;100.00
29461;BME280;16428;47.836;35.106;2023-01-28T00:03:49;101345.53;;;-0.53;100.00
29461;BME280;16428;47.836;35.106;2023-01-28T00:06:22;101347.28;;;-0.68;100.00
29461;BME280;16428;47.836;35.106;2023-01-28T00:08:53;101349.38;;;-0.59;100.00
29461;BME280;16428;47.836;35.106;2023-01-28T00:11:23;101344.31;;;-0.48;100.00
29461;BME280;16428;47.836;35.106;2023-01-28T00:13:53;101345.53;;;-0.53;100.00
29461;BME280;16428;47.836;35.106;2023-01-28T00:16:25;101339.88;;;-0.61;100.00
29461;BME280;16428;47.836;35.106;2023-01-28T00:18:56;101332.13;;;-0.64;100.00
29461;BME280;16428;47.836;35.106;2023-01-28T00:21:24;101340.59;;;-0.59;100.00
29461;BME280;16428;47.836;35.106;2023-01-28T00:23:58;101336.56;;;-0.65;100.00
29461;BME280;16428;47.836;35.106;2023-01-28T00:26:26;101335.91;;;-0.54;100.00
29461;BME280;16428;47.836;35.106;2023-01-28T00:28:56;101336.03;;;-0.72;100.00
29461;BME280;16428;47.836;35.106;2023-01-28T00:31:28;101341.38;;;-0.57;100.00
29461;BME280;16428;47.836;35.106;2023-01-28T00:33:57;101338.84;;;-0.75;100.00
29461;BME280;16428;47.836;35.106;2023-01-28T00:36:26;101328.50;;;-0.78;100.00
29461;BME280;16428;47.836;35.106;2023-01-28T00:38:57;101329.56;;;-0.66;100.00
29461;BME280;16428;47.836;35.106;2023-01-28T00:41:28;101321.63;;;-0.80;100.00
29461;BME280;16428;47.836;35.106;2023-01-28T00:44:00;101331.34;;;-0.66;100.00
29461;BME280;16428;47.836;35.106;2023-01-28T00:46:29;101328.19;;;-0.87;100.00
29461;BME280;16428;47.836;35.106;2023-01-28T00:49:00;101320.03;;;-0.68;100.00
29461;BME280;16428;47.836;35.106;2023-01-28T00:51:32;101315.63;;;-0.68;100.00
29461;BME280;16428;47.836;35.106;2023-01-28T00:54:03;101317.19;;;-0.80;100.00
29461;BME280;16428;47.836;35.106;2023-01-28T00:56:32;101306.50;;;-0.92;100.00
29461;BME280;16428;47.836;35.106;2023-01-28T00:59:05;101312.66;;;-0.92;100.00
29461;BME280;16428;47.836;35.106;2023-01-28T01:01:33;101303.28;;;-0.97;100.00
29461;BME280;16428;47.836;35.106;2023-01-28T01:04:08;101302.38;;;-0.82;100.00
29461;BME280;16428;47.836;35.106;2023-01-28T01:06:39;101295.13;;;-0.93;100.00
29461;BME280;16428;47.836;35.106;2023-01-28T01:09:10;101300.38;;;-0.93;100.00
29461;BME280;16428;47.836;35.106;2023-01-28T01:11:41;101300.94;;;-0.88;100.00
29461;BME280;16428;47.836;35.106;2023-01-28T01:14:16;101299.84;;;-0.84;100.00
29461;BME280;16428;47.836;35.106;2023-01-28T01:16:44;101304.81;;;-0.93;100.00
29461;BME280;16428;47.836;35.106;2023-01-28T01:19:15;101306.34;;;-1.05;100.00
29461;BME280;16428;47.836;35.106;2023-01-28T01:21:43;101297.16;;;-0.98;100.00
29461;BME280;16428;47.836;35.106;2023-01-28T01:24:18;101294.53;;;-0.98;100.00
29461;BME280;16428;47.836;35.106;2023-01-28T01:26:49;101297.97;;;-0.82;100.00
29461;BME280;16428;47.836;35.106;2023-01-28T01:29:19;101296.00;;;-0.78;100.00
29461;BME280;16428;47.836;35.106;2023-01-28T01:31:49;101300.38;;;-0.93;100.00
29461;BME280;16428;47.836;35.106;2023-01-28T01:34:19;101292.88;;;-0.85;100.00
29461;BME280;16428;47.836;35.106;2023-01-28T01:36:47;101297.00;;;-0.95;100.00
29461;BME280;16428;47.836;35.106;2023-01-28T01:39:16;101282.13;;;-0.82;100.00
29461;BME280;16428;47.836;35.106;2023-01-28T01:41:45;101296.44;;;-0.86;100.00
29461;BME280;16428;47.836;35.106;2023-01-28T01:47:46;101294.56;;;-0.84;100.00
29461;BME280;16428;47.836;35.106;2023-01-28T01:50:38;101286.88;;;-1.02;100.00
29461;BME280;16428;47.836;35.106;2023-01-28T01:53:19;101292.47;;;-1.23;100.00
29461;BME280;16428;47.836;35.106;2023-01-28T01:55:52;101285.63;;;-1.11;100.00
29461;BME280;16428;47.836;35.106;2023-01-28T01:58:30;101291.25;;;-1.17;100.00
29461;BME280;16428;47.836;35.106;2023-01-28T02:01:02;101290.06;;;-1.27;100.00
29461;BME280;16428;47.836;35.106;2023-01-28T02:03:56;101296.44;;;-1.31;100.00
29461;BME280;16428;47.836;35.106;2023-01-28T02:06:31;101288.38;;;-1.28;100.00
29461;BME280;16428;47.836;35.106;2023-01-28T02:08:59;101282.28;;;-1.45;100.00
29461;BME280;16428;47.836;35.106;2023-01-28T02:11:31;101282.78;;;-1.22;100.00
29461;BME280;16428;47.836;35.106;2023-01-28T02:14:05;101282.56;;;-1.19;100.00
29461;BME280;16428;47.836;35.106;2023-01-28T02:16:44;101282.00;;;-1.24;100.00
29461;BME280;16428;47.836;35.106;2023-01-28T02:19:21;101277.50;;;-1.22;100.00
29461;BME280;16428;47.836;35.106;2023-01-28T06:59:08;101257.56;;;-0.82;100.00
29461;BME280;16428;47.836;35.106;2023-01-28T07:01:38;101255.19;;;-0.73;100.00
29461;BME280;16428;47.836;35.106;2023-01-28T07:04:08;101243.72;;;-0.57;100.00
29461;BME280;16428;47.836;35.106;2023-01-28T07:06:43;101254.88;;;-0.52;100.00
29461;BME280;16428;47.836;35.106;2023-01-28T07:09:18;101249.41;;;-0.63;100.00
29461;BME280;16428;47.836;35.106;2023-01-28T07:11:47;101247.69;;;-0.64;100.00
29461;BME280;16428;47.836;35.106;2023-01-28T07:14:21;101249.50;;;-0.51;100.00
29461;BME280;16428;47.836;35.106;2023-01-28T07:16:52;101252.22;;;-0.52;100.00
29461;BME280;16428;47.836;35.106;2023-01-28T07:19:42;101248.66;;;-0.51;100.00
29461;BME280;16428;47.836;35.106;2023-01-28T07:22:11;101247.41;;;-0.46;100.00
29461;BME280;16428;47.836;35.106;2023-01-28T07:25:08;101250.59;;;-0.69;100.00
29461;BME280;16428;47.836;35.106;2023-01-28T07:27:51;101250.16;;;-0.47;100.00
29461;BME280;16428;47.836;35.106;2023-01-28T07:30:23;101251.88;;;-0.46;100.00
29461;BME280;16428;47.836;35.106;2023-01-28T07:32:57;101242.44;;;-0.36;100.00
29461;BME280;16428;47.836;35.106;2023-01-28T07:35:30;101248.66;;;-0.23;100.00
29461;BME280;16428;47.836;35.106;2023-01-28T07:38:00;101245.06;;;-0.22;100.00
29461;BME280;16428;47.836;35.106;2023-01-28T07:40:30;101246.84;;;-0.08;100.00
29461;BME280;16428;47.836;35.106;2023-01-28T07:43:10;101253.66;;;-0.32;100.00
29461;BME280;16428;47.836;35.106;2023-01-28T07:45:41;101252.41;;;-0.27;100.00
29461;BME280;16428;47.836;35.106;2023-01-28T07:48:11;101246.94;;;-0.10;100.00
29461;BME280;16428;47.836;35.106;2023-01-28T07:50:40;101253.25;;;-0.26;100.00
29461;BME280;16428;47.836;35.106;2023-01-28T07:53:11;101251.88;;;-0.18;100.00
29461;BME280;16428;47.836;35.106;2023-01-28T07:55:41;101248.84;;;-0.26;100.00
29461;BME280;16428;47.836;35.106;2023-01-28T07:58:10;101241.84;;;-0.13;100.00
29461;BME280;16428;47.836;35.106;2023-01-28T08:00:41;101259.78;;;-0.04;100.00
29461;BME280;16428;47.836;35.106;2023-01-28T08:03:13;101252.22;;;-0.10;100.00
29461;BME280;16428;47.836;35.106;2023-01-28T08:05:50;101255.25;;;-0.16;100.00
29461;BME280;16428;47.836;35.106;2023-01-28T08:08:25;101256.72;;;0.03;100.00
29461;BME280;16428;47.836;35.106;2023-01-28T08:10:54;101255.00;;;0.16;100.00
29461;BME280;16428;47.836;35.106;2023-01-28T08:13:24;101256.81;;;0.01;100.00
29461;BME280;16428;47.836;35.106;2023-01-28T08:15:54;101255.56;;;0.21;100.00
29461;BME280;16428;47.836;35.106;2023-01-28T08:18:24;101250.31;;;0.07;100.00
29461;BME280;16428;47.836;35.106;2023-01-28T08:20:57;101258.25;;;-0.08;100.00
29461;BME280;16428;47.836;35.106;2023-01-28T08:23:27;101257.88;;;-0.02;100.00
29461;BME280;16428;47.836;35.106;2023-01-28T08:25:58;101256.94;;;0.14;100.00
29461;BME280;16428;47.836;35.106;2023-01-28T08:28:27;101258.22;;;0.21;100.00
29461;BME280;16428;47.836;35.106;2023-01-28T08:30:58;101252.75;;;0.24;100.00
29461;BME280;16428;47.836;35.106;2023-01-28T08:33:28;101250.31;;;0.48;100.00
29461;BME280;16428;47.836;35.106;2023-01-28T08:36:02;101249.16;;;0.25;100.00
29461;BME280;16428;47.836;35.106;2023-01-28T08:38:32;101246.66;;;0.36;100.00
29461;BME280;16428;47.836;35.106;2023-01-28T08:41:00;101247.75;;;0.46;100.00
29461;BME280;16428;47.836;35.106;2023-01-28T08:43:28;101245.25;;;0.45;100.00
29461;BME280;16428;47.836;35.106;2023-01-28T08:45:56;101237.78;;;0.37;100.00
29461;BME280;16428;47.836;35.106;2023-01-28T08:48:25;101234.34;;;0.49;100.00
29461;BME280;16428;47.836;35.106;2023-01-28T08:50:57;101231.94;;;0.86;100.00
29461;BME280;16428;47.836;35.106;2023-01-28T08:53:27;101235.66;;;0.56;100.00
29461;BME280;16428;47.836;35.106;2023-01-28T08:55:55;101231.75;;;0.89;100.00
29461;BME280;16428;47.836;35.106;2023-01-28T08:58:26;101225.81;;;0.85;100.00
29461;BME280;16428;47.836;35.106;2023-01-28T09:06:55;101213.44;;;0.86;99.50
29461;BME280;16428;47.836;35.106;2023-01-28T09:09:24;101209.56;;;1.04;99.57
29461;BME280;16428;47.836;35.106;2023-01-28T09:11:53;101208.16;;;1.24;97.99
29461;BME280;16428;47.836;35.106;2023-01-28T09:14:24;101208.19;;;1.49;97.50
29461;BME280;16428;47.836;35.106;2023-01-28T09:16:54;101204.16;;;1.44;98.22
29461;BME280;16428;47.836;35.106;2023-01-28T09:19:26;101202.47;;;1.42;99.03
29461;BME280;16428;47.836;35.106;2023-01-28T09:22:23;101202.22;;;1.71;96.98
29461;BME280;16428;47.836;35.106;2023-01-28T09:24:59;101181.44;;;1.90;95.78
29461;BME280;16428;47.836;35.106;2023-01-28T09:27:42;101177.75;;;1.80;96.81
29461;BME280;16428;47.836;35.106;2023-01-28T09:30:38;101174.44;;;1.89;96.42
29461;BME280;16428;47.836;35.106;2023-01-28T09:33:38;101180.38;;;1.93;96.81
29461;BME280;16428;47.836;35.106;2023-01-28T09:36:23;101176.28;;;2.13;96.12
29461;BME280;16428;47.836;35.106;2023-01-28T09:39:19;101171.47;;;2.18;95.48
29461;BME280;16428;47.836;35.106;2023-01-28T09:45:47;101173.22;;;2.30;95.42
29461;BME280;16428;47.836;35.106;2023-01-28T09:48:33;101169.13;;;1.89;97.04
29461;BME280;16428;47.836;35.106;2023-01-28T09:51:42;101171.78;;;2.26;95.99
29461;BME280;16428;47.836;35.106;2023-01-28T09:57:25;101160.59;;;2.09;96.62
29461;BME280;16428;47.836;35.106;2023-01-28T10:00:16;101167.47;;;2.36;95.57
29461;BME280;16428;47.836;35.106;2023-01-28T10:03:49;101162.41;;;2.33;95.36
29461;BME280;16428;47.836;35.106;2023-01-28T10:15:58;101148.97;;;1.99;98.50
29461;BME280;16428;47.836;35.106;2023-01-28T10:19:15;101145.00;;;1.81;99.62
29461;BME280;16428;47.836;35.106;2023-01-28T10:22:29;101147.50;;;1.95;99.62
29461;BME280;16428;47.836;35.106;2023-01-28T14:34:37;101153.59;;;2.32;100.00
29461;BME280;16428;47.836;35.106;2023-01-28T14:37:12;101150.94;;;2.32;100.00
29461;BME280;16428;47.836;35.106;2023-01-28T14:39:53;101159.47;;;2.25;100.00
29461;BME280;16428;47.836;35.106;2023-01-28T15:00:24;101166.13;;;2.06;100.00
29461;BME280;16428;47.836;35.106;2023-01-28T15:02:55;101159.13;;;2.05;100.00
29461;BME280;16428;47.836;35.106;2023-01-28T15:05:28;101156.53;;;2.17;100.00
29461;BME280;16428;47.836;35.106;2023-01-28T15:07:57;101158.22;;;2.18;100.00
29461;BME280;16428;47.836;35.106;2023-01-28T15:10:30;101153.66;;;2.20;100.00
29461;BME280;16428;47.836;35.106;2023-01-28T15:13:08;101144.53;;;2.24;100.00
29461;BME280;16428;47.836;35.106;2023-01-28T15:15:40;101139.63;;;2.06;100.00
29461;BME280;16428;47.836;35.106;2023-01-28T15:18:22;101134.47;;;2.16;100.00
29461;BME280;16428;47.836;35.106;2023-01-28T15:20:55;101130.72;;;2.07;100.00
29461;BME280;16428;47.836;35.106;2023-01-28T15:23:35;101126.88;;;2.11;100.00
29461;BME280;16428;47.836;35.106;2023-01-28T15:29:22;101137.44;;;2.24;100.00
29461;BME280;16428;47.836;35.106;2023-01-28T15:31:51;101134.66;;;2.26;100.00
29461;BME280;16428;47.836;35.106;2023-01-28T15:34:20;101141.41;;;2.30;100.00
29461;BME280;16428;47.836;35.106;2023-01-28T15:36:51;101145.94;;;2.17;100.00
29461;BME280;16428;47.836;35.106;2023-01-28T15:39:23;101141.09;;;2.10;100.00
29461;BME280;16428;47.836;35.106;2023-01-28T15:42:00;101154.63;;;2.19;100.00
29461;BME280;16428;47.836;35.106;2023-01-28T15:44:43;101161.72;;;2.42;100.00
29461;BME280;16428;47.836;35.106;2023-01-28T15:47:15;101165.78;;;2.35;100.00
29461;BME280;16428;47.836;35.106;2023-01-28T15:49:51;101163.34;;;2.32;100.00
29461;BME280;16428;47.836;35.106;2023-01-28T15:52:28;101164.66;;;2.50;100.00
29461;BME280;16428;47.836;35.106;2023-01-28T15:54:58;101172.59;;;2.50;100.00
29461;BME280;16428;47.836;35.106;2023-01-28T15:57:31;101181.81;;;2.57;100.00
29461;BME280;16428;47.836;35.106;2023-01-28T16:00:12;101185.19;;;2.59;100.00
29461;BME280;16428;47.836;35.106;2023-01-28T16:02:43;101179.78;;;2.37;100.00
29461;BME280;16428;47.836;35.106;2023-01-28T16:05:30;101184.50;;;2.21;100.00
29461;BME280;16428;47.836;35.106;2023-01-28T16:08:06;101183.97;;;2.16;100.00
29461;BME280;16428;47.836;35.106;2023-01-28T16:10:36;101185.19;;;1.99;100.00
29461;BME280;16428;47.836;35.106;2023-01-28T16:15:48;101183.03;;;2.17;100.00
29461;BME280;16428;47.836;35.106;2023-01-28T16:21:36;101193.94;;;2.25;100.00
29461;BME280;16428;47.836;35.106;2023-01-28T16:24:24;101195.31;;;2.18;100.00
29461;BME280;16428;47.836;35.106;2023-01-28T16:29:29;101200.63;;;2.18;100.00
29461;BME280;16428;47.836;35.106;2023-01-28T16:32:03;101201.09;;;2.11;100.00
29461;BME280;16428;47.836;35.106;2023-01-28T16:34:33;101207.00;;;2.15;100.00
29461;BME280;16428;47.836;35.106;2023-01-28T16:37:11;101204.75;;;2.22;100.00
29461;BME280;16428;47.836;35.106;2023-01-28T16:39:39;101204.16;;;2.05;100.00
29461;BME280;16428;47.836;35.106;2023-01-28T16:42:09;101208.31;;;2.09;100.00
29461;BME280;16428;47.836;35.106;2023-01-28T16:44:37;101203.84;;;2.10;100.00
29461;BME280;16428;47.836;35.106;2023-01-28T16:47:10;101208.09;;;2.00;100.00
29461;BME280;16428;47.836;35.106;2023-01-28T16:49:42;101213.75;;;1.95;100.00
29461;BME280;16428;47.836;35.106;2023-01-28T16:52:11;101206.59;;;2.08;100.00
29461;BME280;16428;47.836;35.106;2023-01-28T16:54:42;101209.25;;;2.08;100.00
29461;BME280;16428;47.836;35.106;2023-01-28T16:57:19;101199.44;;;1.85;100.00
29461;BME280;16428;47.836;35.106;2023-01-28T16:59:49;101188.41;;;1.91;100.00
29461;BME280;16428;47.836;35.106;2023-01-28T17:02:17;101201.66;;;1.91;100.00
29461;BME280;16428;47.836;35.106;2023-01-28T17:04:49;101189.38;;;1.90;100.00
29461;BME280;16428;47.836;35.106;2023-01-28T17:07:21;101191.81;;;1.93;100.00
29461;BME280;16428;47.836;35.106;2023-01-28T17:09:53;101190.75;;;1.96;100.00
29461;BME280;16428;47.836;35.106;2023-01-28T17:12:23;101187.47;;;1.92;100.00
29461;BME280;16428;47.836;35.106;2023-01-28T17:14:53;101189.94;;;1.83;100.00
29461;BME280;16428;47.836;35.106;2023-01-28T17:17:23;101188.22;;;1.94;100.00
29461;BME280;16428;47.836;35.106;2023-01-28T17:20:20;101185.03;;;1.89;100.00
29461;BME280;16428;47.836;35.106;2023-01-28T17:23:14;101196.16;;;1.94;100.00
29461;BME280;16428;47.836;35.106;2023-01-28T17:25:45;101192.34;;;1.86;100.00
29461;BME280;16428;47.836;35.106;2023-01-28T17:28:15;101188.41;;;1.91;100.00
29461;BME280;16428;47.836;35.106;2023-01-28T17:30:44;101185.44;;;1.96;100.00
29461;BME280;16428;47.836;35.106;2023-01-28T17:33:16;101185.97;;;1.88;100.00
29461;BME280;16428;47.836;35.106;2023-01-28T17:35:56;101183.34;;;1.88;100.00
29461;BME280;16428;47.836;35.106;2023-01-28T17:38:35;101176.78;;;1.81;100.00
29461;BME280;16428;47.836;35.106;2023-01-28T17:41:15;101187.41;;;1.81;100.00
29461;BME280;16428;47.836;35.106;2023-01-28T17:43:58;101177.59;;;1.94;100.00
29461;BME280;16428;47.836;35.106;2023-01-28T17:46:40;101177.19;;;1.88;100.00
29461;BME280;16428;47.836;35.106;2023-01-28T17:49:15;101180.63;;;1.77;100.00
29461;BME280;16428;47.836;35.106;2023-01-28T17:51:45;101176.28;;;1.76;100.00
29461;BME280;16428;47.836;35.106;2023-01-28T17:54:16;101174.38;;;1.78;100.00
29461;BME280;16428;47.836;35.106;2023-01-28T17:56:49;101169.81;;;1.80;100.00
29461;BME280;16428;47.836;35.106;2023-01-28T17:59:26;101180.78;;;1.87;100.00
29461;BME280;16428;47.836;35.106;2023-01-28T18:01:58;101172.38;;;2.05;100.00
29461;BME280;16428;47.836;35.106;2023-01-28T18:04:29;101166.19;;;1.81;100.00
29461;BME280;16428;47.836;35.106;2023-01-28T18:07:04;101161.28;;;1.88;100.00
29461;BME280;16428;47.836;35.106;2023-01-28T18:09:41;101165.53;;;1.90;100.00
29461;BME280;16428;47.836;35.106;2023-01-28T18:12:17;101163.09;;;1.87;100.00
29461;BME280;16428;47.836;35.106;2023-01-28T18:14:50;101165.22;;;1.95;100.00
29461;BME280;16428;47.836;35.106;2023-01-28T18:17:32;101153.97;;;1.91;100.00
29461;BME280;16428;47.836;35.106;2023-01-28T18:20:10;101164.06;;;1.86;100.00
29461;BME280;16428;47.836;35.106;2023-01-28T18:22:47;101164.69;;;1.90;100.00
29461;BME280;16428;47.836;35.106;2023-01-28T18:25:26;101157.06;;;1.85;100.00
29461;BME280;16428;47.836;35.106;2023-01-28T18:28:00;101152.59;;;1.98;100.00
29461;BME280;16428;47.836;35.106;2023-01-28T18:30:38;101158.94;;;1.96;100.00
29461;BME280;16428;47.836;35.106;2023-01-28T18:33:09;101154.94;;;1.90;100.00
29461;BME280;16428;47.836;35.106;2023-01-28T18:35:58;101150.91;;;1.97;100.00
29461;BME280;16428;47.836;35.106;2023-01-28T18:38:28;101142.25;;;1.83;100.00
29461;BME280;16428;47.836;35.106;2023-01-28T18:40:57;101143.16;;;1.94;100.00
29461;BME280;16428;47.836;35.106;2023-01-28T18:43:27;101145.59;;;1.97;100.00
29461;BME280;16428;47.836;35.106;2023-01-28T18:46:08;101145.13;;;2.03;100.00
29461;BME280;16428;47.836;35.106;2023-01-28T18:48:41;101138.19;;;1.90;100.00
29461;BME280;16428;47.836;35.106;2023-01-28T18:51:18;101143.59;;;1.88;100.00
29461;BME280;16428;47.836;35.106;2023-01-28T18:54:00;101145.53;;;1.73;100.00
29461;BME280;16428;47.836;35.106;2023-01-28T18:56:30;101145.19;;;1.91;100.00
29461;BME280;16428;47.836;35.106;2023-01-28T18:59:02;101134.16;;;1.84;100.00
29461;BME280;16428;47.836;35.106;2023-01-28T19:01:33;101127.84;;;1.74;100.00
29461;BME280;16428;47.836;35.106;2023-01-28T19:04:02;101125.38;;;1.84;100.00
29461;BME280;16428;47.836;35.106;2023-01-28T19:06:31;101120.50;;;1.90;100.00
29461;BME280;16428;47.836;35.106;2023-01-28T19:09:04;101120.66;;;1.76;100.00
29461;BME280;16428;47.836;35.106;2023-01-28T19:11:36;101117.25;;;1.74;100.00
29461;BME280;16428;47.836;35.106;2023-01-28T19:14:17;101122.19;;;1.91;100.00
29461;BME280;16428;47.836;35.106;2023-01-28T19:16:46;101116.38;;;1.86;100.00
29461;BME280;16428;47.836;35.106;2023-01-28T19:19:31;101111.31;;;1.83;100.00
29461;BME280;16428;47.836;35.106;2023-01-28T19:22:18;101110.41;;;1.95;100.00
29461;BME280;16428;47.836;35.106;2023-01-28T19:24:57;101111.84;;;1.75;100.00
29461;BME280;16428;47.836;35.106;2023-01-28T19:27:43;101119.25;;;1.83;100.00
29461;BME280;16428;47.836;35.106;2023-01-28T19:30:29;101098.34;;;1.91;100.00
29461;BME280;16428;47.836;35.106;2023-01-28T19:33:26;101107.66;;;1.97;100.00
29461;BME280;16428;47.836;35.106;2023-01-28T19:36:10;101102.56;;;1.94;100.00
29461;BME280;16428;47.836;35.106;2023-01-28T19:38:41;101108.56;;;2.08;100.00
29461;BME280;16428;47.836;35.106;2023-01-28T19:41:14;101104.44;;;2.04;100.00
29461;BME280;16428;47.836;35.106;2023-01-28T19:43:46;101099.41;;;1.89;100.00
29461;BME280;16428;47.836;35.106;2023-01-28T19:46:32;101102.47;;;1.95;100.00
29461;BME280;16428;47.836;35.106;2023-01-28T19:49:04;101101.84;;;1.92;100.00
29461;BME280;16428;47.836;35.106;2023-01-28T19:51:42;101095.97;;;1.99;100.00
29461;BME280;16428;47.836;35.106;2023-01-28T19:54:20;101099.66;;;2.09;100.00
29461;BME280;16428;47.836;35.106;2023-01-28T19:56:49;101100.66;;;2.20;100.00
29461;BME280;16428;47.836;35.106;2023-01-28T19:59:26;101109.78;;;2.16;100.00
29461;BME280;16428;47.836;35.106;2023-01-28T20:02:08;101111.53;;;2.28;100.00
29461;BME280;16428;47.836;35.106;2023-01-28T20:04:40;101120.50;;;2.14;100.00
29461;BME280;16428;47.836;35.106;2023-01-28T20:07:27;101111.72;;;2.14;100.00
29461;BME280;16428;47.836;35.106;2023-01-28T20:09:56;101112.38;;;2.04;100.00
29461;BME280;16428;47.836;35.106;2023-01-28T20:12:26;101117.72;;;2.16;100.00
29461;BME280;16428;47.836;35.106;2023-01-28T20:15:02;101107.38;;;2.13;100.00
29461;BME280;16428;47.836;35.106;2023-01-28T20:17:33;101120.22;;;2.06;100.00
29461;BME280;16428;47.836;35.106;2023-01-28T20:20:05;101119.16;;;2.08;100.00
29461;BME280;16428;47.836;35.106;2023-01-28T20:22:49;101113.13;;;2.06;100.00
29461;BME280;16428;47.836;35.106;2023-01-28T20:25:20;101115.19;;;2.14;100.00
29461;BME280;16428;47.836;35.106;2023-01-28T20:27:50;101117.97;;;2.13;100.00
29461;BME280;16428;47.836;35.106;2023-01-28T20:30:20;101113.16;;;2.18;100.00
29461;BME280;16428;47.836;35.106;2023-01-28T20:32:57;101116.50;;;2.08;100.00
29461;BME280;16428;47.836;35.106;2023-01-28T20:35:26;101124.97;;;2.14;100.00
29461;BME280;16428;47.836;35.106;2023-01-28T20:37:56;101119.69;;;2.14;100.00
29461;BME280;16428;47.836;35.106;2023-01-28T20:40:31;101117.72;;;2.16;100.00
29461;BME280;16428;47.836;35.106;2023-01-28T20:43:00;101115.16;;;2.27;100.00
29461;BME280;16428;47.836;35.106;2023-01-28T20:45:30;101118.47;;;2.18;100.00
29461;BME280;16428;47.836;35.106;2023-01-28T20:48:00;101117.25;;;2.10;100.00
29461;BME280;16428;47.836;35.106;2023-01-28T20:50:29;101106.47;;;2.25;100.00
29461;BME280;16428;47.836;35.106;2023-01-28T20:53:01;101106.72;;;2.33;100.00
29461;BME280;16428;47.836;35.106;2023-01-28T20:55:33;101104.47;;;2.39;100.00
29461;BME280;16428;47.836;35.106;2023-01-28T20:58:05;101106.00;;;2.31;100.00
29461;BME280;16428;47.836;35.106;2023-01-28T21:00:38;101099.72;;;2.32;100.00
29461;BME280;16428;47.836;35.106;2023-01-28T21:03:08;101091.84;;;2.43;100.00
29461;BME280;16428;47.836;35.106;2023-01-28T21:05:39;101093.00;;;2.28;100.00
29461;BME280;16428;47.836;35.106;2023-01-28T21:08:18;101087.38;;;2.43;100.00
29461;BME280;16428;47.836;35.106;2023-01-28T21:10:47;101086.69;;;2.53;100.00
29461;BME280;16428;47.836;35.106;2023-01-28T21:13:19;101097.41;;;2.62;100.00
29461;BME280;16428;47.836;35.106;2023-01-28T21:15:55;101091.97;;;2.53;100.00
29461;BME280;16428;47.836;35.106;2023-01-28T21:18:36;101089.22;;;2.54;100.00
29461;BME280;16428;47.836;35.106;2023-01-28T21:21:16;101093.66;;;2.54;100.00
29461;BME280;16428;47.836;35.106;2023-01-28T21:24:09;101092.19;;;2.38;100.00
29461;BME280;16428;47.836;35.106;2023-01-28T21:26:39;101088.63;;;2.62;100.00
29461;BME280;16428;47.836;35.106;2023-01-28T21:29:22;101091.34;;;2.38;100.00
29461;BME280;16428;47.836;35.106;2023-01-28T21:31:56;101094.03;;;2.60;100.00
29461;BME280;16428;47.836;35.106;2023-01-28T21:34:35;101096.09;;;2.57;100.00
29461;BME280;16428;47.836;35.106;2023-01-28T21:37:04;101098.13;;;2.53;100.00
29461;BME280;16428;47.836;35.106;2023-01-28T21:39:40;101088.88;;;2.59;100.00
29461;BME280;16428;47.836;35.106;2023-01-28T21:42:09;101092.63;;;2.67;100.00
29461;BME280;16428;47.836;35.106;2023-01-28T21:44:38;101090.78;;;2.57;100.00
29461;BME280;16428;47.836;35.106;2023-01-28T21:47:08;101091.66;;;2.68;100.00
29461;BME280;16428;47.836;35.106;2023-01-28T21:49:41;101084.91;;;2.75;100.00
29461;BME280;16428;47.836;35.106;2023-01-28T21:52:12;101084.44;;;2.70;100.00
29461;BME280;16428;47.836;35.106;2023-01-28T21:54:45;101081.06;;;2.79;100.00
29461;BME280;16428;47.836;35.106;2023-01-28T21:57:15;101079.59;;;2.75;100.00
29461;BME280;16428;47.836;35.106;2023-01-28T21:59:43;101081.22;;;2.89;100.00
29461;BME280;16428;47.836;35.106;2023-01-28T22:02:19;101081.78;;;2.70;100.00
29461;BME280;16428;47.836;35.106;2023-01-28T22:04:52;101071.84;;;2.61;100.00
29461;BME280;16428;47.836;35.106;2023-01-28T22:07:27;101063.88;;;2.50;100.00
29461;BME280;16428;47.836;35.106;2023-01-28T22:09:59;101075.00;;;2.55;100.00
29461;BME280;16428;47.836;35.106;2023-01-28T22:12:38;101072.78;;;2.49;100.00
